Tiempo atmosférico en la estación meteorológica de Os De Balaguer, Lleida (515 m.)



Fecha
DESCASC
Temp. máxima en grados centígrados (hora)
DESCASC
Temp. mínima en grados centígrados (hora)
DESCASC
Temp. media en grados centígrados
DESCASC
Racha de viento máxima en m/sg (hora)
DESCASC
Velocidad máxima media en intervalos de 10 minutos(hora)
DESCASC
Precipitaciones diarias en mm
DESCASC
Precipitaciones de 00:00 a 06:00 en mm
DESCASC
Precipitaciones de 06:00 a 12:00 en mm
DESCASC
Precipitaciones de 12:00 a 18:00 en mm
DESCASC
Precipitaciones de 18:00 a 24:00 en mm
DESCASC
14-12-2019 14.8 (14:00) 4.9 (23:10) 9.9 13.06 (00:30) 6.11 (00:30) 0 0 0 0 0
13-12-2019 16 (13:50) 5.5 (00:00) 10.8 19.44 (14:10) 9.72 (14:10) 0.6 0.6 0 0 0
12-12-2019 9.5 (12:40) 3.1 (06:00) 6.3 11.67 (15:10) 6.11 (12:50) 3.2 0 0 1.4 1.8
11-12-2019 10.3 (16:50) 1.2 (00:00) 5.8 9.72 (22:20) 5.56 (13:00) 0 0 0 0 0
10-12-2019 11.1 (15:40) 2.4 (00:00) 6.8 9.17 (06:10) 4.17 (03:50) 0 0 0 0 0
09-12-2019 12.8 (14:20) 2.3 (00:00) 7.6 13.61 (12:00) 7.22 (12:40) 0 0 0 0 0
08-12-2019 5.6 (23:20) 3 (00:00) 4.3 3.06 (05:20) 2.22 (06:10) 0.2 0.2 0 0 0
07-12-2019 6.8 (12:00) 2.9 (00:00) 4.9 5.83 (04:50) 3.89 (02:50) 0 0 0 0 0
06-12-2019 11.8 (11:40) 3.8 (00:00) 7.8 4.44 (17:00) 3.06 (06:30) 0 0 0 0 0
05-12-2019 11.9 (13:30) 6.9 (00:00) 9.4 9.72 (01:20) 6.11 (01:30) 8.6 7.8 0.6 0.2 0
04-12-2019 10.1 (05:20) 3.5 (00:00) 6.8 9.17 (20:30) 5.56 (04:40) 5.4 0 0 1.6 3.8
03-12-2019 7.3 (16:10) 1.3 (00:00) 4.3 4.44 (23:10) 3.06 (18:40) 0 0 0 0 0
02-12-2019 11.1 (14:00) 1.7 (00:00) 6.4 5.28 (14:20) 4.17 (02:10) 0 0 0 0 0
01-12-2019 12.8 (15:40) 2.8 (00:00) 7.8 7.78 (01:40) 3.89 (16:00) 0 0 0 0 0
30-11-2019 15.7 (16:30) 4.2 (00:00) 9.9 5.83 (05:30) 4.72 (05:30) 0 0 0 0 0
29-11-2019 17.1 (15:10) 5.2 (00:00) 11.2 9.72 (14:30) 5 (14:30) 0 0 0 0 0
28-11-2019 16 (13:40) 5.2 (00:00) 10.6 8.89 (12:40) 4.72 (14:40) 0 0 0 0 0
27-11-2019 15.1 (15:10) 7.9 (00:00) 11.5 10 (11:40) 5.83 (11:50) 0.2 0.2 0 0 0
26-11-2019 14.4 (15:30) 4.4 (00:00) 9.4 5.56 (01:40) 4.17 (01:40) 0.4 0 0 0 0.4
25-11-2019 15 (14:40) 2.8 (00:00) 8.9 6.67 (05:40) 5 (05:40) 0 0 0 0 0
24-11-2019 14.3 (13:10) 3.4 (00:00) 8.9 9.17 (09:00) 5.28 (13:20) 0 0 0 0 0
23-11-2019 11 (00:10) 6 (00:00) 8.5 11.94 (14:20) 6.11 (15:00) 1 1 0 0 0
22-11-2019 11.7 (14:40) 4.3 (00:00) 8 8.61 (14:00) 5.28 (14:00) 13.4 0 0 2.8 10.6
21-11-2019 11.9 (15:30) 1.4 (00:00) 6.6 7.78 (14:00) 5.28 (14:30) 0 0 0 0 0
20-11-2019 12.1 (14:30) -0.7 (-00:0) 5.7 5.83 (00:20) 4.17 (23:00) 0 0 0 0 0
19-11-2019 9.1 (15:10) -1.4 (-00:0) 3.9 6.39 (15:50) 4.44 (15:50) 0 0 0 0 0
18-11-2019 9.4 (16:10) 0.4 (00:00) 4.9 5.28 (08:00) 3.89 (16:30) 0 0 0 0 0
17-11-2019 9.2 (15:10) -1.5 (-00:0) 3.8 8.33 (12:00) 4.72 (12:20) 0 0 0 0 0
16-11-2019 7.2 (15:30) -0.6 (-00:0) 3.3 10 (17:00) 4.17 (15:20) 0 0 0 0 0

Gráficas

Temp. máximas Temp. mínimas Temp. medias Precipitaciones Rachas de viento máximas Velocidades máximas media en intervalos de 10 minutos

Datos horarios

Fecha y hora oficial Temperatura (ºC) Velocidad del viento (km/h) Dirección del viento Racha (km/h) Dirección de racha Precipitación (mm) Presión (hPa) Tendencia (hPa) Humedad (%)
2019-12-15 23:00:00 5.3 7 Nordeste 9 Nordeste 0 -- -- 91
2019-12-15 22:00:00 6.7 6 Nordeste 14 Nordeste 0 -- -- 87
2019-12-15 21:00:00 7.2 10 Nordeste 15 Nordeste 0 -- -- 86
2019-12-15 20:00:00 7 11 Este 15 Este 0 -- -- 89
2019-12-15 19:00:00 7.1 6 Nordeste 9 Nordeste 0 -- -- 90
2019-12-15 18:00:00 8.6 0 Calma 13 Sudoeste 0 -- -- 80
2019-12-15 17:00:00 12.3 12 Sudoeste 18 Sudoeste 0 -- -- 69
2019-12-15 16:00:00 14.3 10 Sudoeste 20 Oeste 0 -- -- 62
2019-12-15 15:00:00 14.4 13 Oeste 22 Noroeste 0 -- -- 59
2019-12-15 14:00:00 14.4 12 Sudoeste 18 Sur 0 -- -- 65
2019-12-15 13:00:00 13 11 Sudoeste 16 Sudoeste 0 -- -- 70
2019-12-15 12:00:00 11.9 8 Sudoeste 19 Sur 0 -- -- 74
2019-12-15 11:00:00 11.7 14 Sudoeste 32 Sudoeste 0 -- -- 72
2019-12-15 10:00:00 8 0 Calma 9 Nordeste 0 -- -- 88
2019-12-15 09:00:00 3.5 8 Este 10 Nordeste 0 -- -- 94
2019-12-15 08:00:00 3.6 5 Nordeste 10 Este 0 -- -- 93
2019-12-15 07:00:00 4.7 8 Nordeste 13 Nordeste 0 -- -- 88
2019-12-15 06:00:00 5 5 Este 12 Este 0 -- -- 91
2019-12-15 05:00:00 4.9 5 Nordeste 9 Nordeste 0 -- -- 91
2019-12-15 04:00:00 4.5 6 Norte 10 Nordeste 0 -- -- 94
2019-12-15 03:00:00 4.7 9 Este 14 Este 0 -- -- 91
2019-12-15 02:00:00 5.6 5 Nordeste 12 Noroeste 0 -- -- 90
2019-12-15 01:00:00 5.6 5 Norte 8 Nordeste 0 -- -- 89
2019-12-15 00:00:00 5 4 Este 6 Este 0 -- -- 94
2019-12-14 23:00:00 5 5 Nordeste 8 Nordeste 0 -- -- 92
2019-12-14 22:00:00 5.5 5 Nordeste 10 Este 0 -- -- 91
2019-12-14 21:00:00 6.2 9 Este 13 Este 0 -- -- 88
2019-12-14 20:00:00 9.5 4 Norte 19 Oeste 0 -- -- 74
2019-12-14 19:00:00 10.9 7 Oeste 18 Noroeste 0 -- -- 69
2019-12-14 18:00:00 10.5 5 Norte 27 Sudoeste 0 -- -- 72
2019-12-14 17:00:00 12.9 15 Oeste 28 Sudoeste 0 -- -- 64
2019-12-14 16:00:00 13.4 19 Oeste 30 Sudoeste 0 -- -- 65
2019-12-14 15:00:00 14 14 Sudoeste 24 Oeste 0 -- -- 67
2019-12-14 14:00:00 14.8 9 Sudoeste 21 Oeste 0 -- -- 65
2019-12-14 13:00:00 14 11 Oeste 24 Oeste 0 -- -- 66
2019-12-14 12:00:00 12.3 11 Oeste 24 Sudoeste 0 -- -- 70
2019-12-14 11:00:00 12 13 Sudoeste 23 Oeste 0 -- -- 72
2019-12-14 10:00:00 11.3 8 Oeste 28 Sudoeste 0 -- -- 77
2019-12-14 09:00:00 9.6 14 Sudoeste 25 Oeste 0 -- -- 81
2019-12-14 08:00:00 8.1 5 Sudeste 9 Sudoeste 0 -- -- 86
2019-12-14 07:00:00 9.1 6 Sudeste 18 Oeste 0 -- -- 82
2019-12-14 06:00:00 9.5 9 Oeste 21 Oeste 0 -- -- 84
2019-12-14 05:00:00 10.2 9 Oeste 24 Oeste 0 -- -- 82
2019-12-14 04:00:00 10.6 11 Sur 31 Oeste 0 -- -- 79
2019-12-14 03:00:00 11.4 17 Oeste 36 Oeste 0 -- -- 75
2019-12-14 02:00:00 11.8 18 Oeste 39 Oeste 0 -- -- 74
2019-12-14 01:00:00 12.2 20 Oeste 47 Oeste 0 -- -- 73
2019-12-14 00:00:00 12.7 19 Oeste 37 Oeste 0 -- -- 69
2019-12-13 23:00:00 13.7 10 Oeste 34 Noroeste 0 -- -- 63
2019-12-13 22:00:00 13.1 12 Noroeste 30 Noroeste 0 -- -- 75
2019-12-13 21:00:00 12.5 9 Oeste 37 Oeste 0 -- -- 80
2019-12-13 20:00:00 12.3 19 Oeste 47 Oeste 0 -- -- 81
2019-12-13 19:00:00 12.5 17 Oeste 35 Oeste 0 -- -- 79
2019-12-13 18:00:00 13.1 13 Oeste 40 Oeste 0 -- -- 74
2019-12-13 17:00:00 15.5 15 Oeste 44 Sudoeste 0 -- -- 62
2019-12-13 16:00:00 15.4 21 Oeste 62 Oeste 0 -- -- 70
2019-12-13 15:00:00 15.4 31 Oeste 70 Oeste 0 -- -- 70
2019-12-13 14:00:00 15.9 32 Oeste 63 Oeste 0 -- -- 68
2019-12-13 13:00:00 15.4 26 Oeste 61 Oeste 0 -- -- 72
2019-12-13 12:00:00 14.9 29 Oeste 57 Oeste 0 -- -- 74
2019-12-13 11:00:00 14 25 Oeste 53 Oeste 0 -- -- 79
2019-12-13 10:00:00 12.1 21 Oeste 46 Oeste 0 -- -- 87
2019-12-13 09:00:00 10.9 23 Oeste 44 Oeste 0 -- -- 91
2019-12-13 08:00:00 10.5 21 Oeste 49 Oeste 0 -- -- 93
2019-12-13 07:00:00 9.8 19 Sudoeste 40 Oeste 0 -- -- 95
2019-12-13 06:00:00 8.9 11 Oeste 28 Oeste 0.2 -- -- 96
2019-12-13 05:00:00 8.2 13 Oeste 27 Oeste 0 -- -- 96
2019-12-13 04:00:00 7.7 11 Oeste 26 Oeste 0 -- -- 96
2019-12-13 03:00:00 7.2 10 Oeste 24 Sudoeste 0.2 -- -- 97
2019-12-13 02:00:00 6.3 6 Sudoeste 15 Norte 0.2 -- -- 98
2019-12-13 01:00:00 5.6 3 Nordeste 7 Sur 0 -- -- 98
2019-12-13 00:00:00 5.5 2 Norte 12 Sudoeste 0.2 -- -- 97
2019-12-12 23:00:00 5.5 6 Sudoeste 12 Oeste 0 -- -- 96
2019-12-12 22:00:00 5.3 5 Sudoeste 10 Sudoeste 0.2 -- -- 96
2019-12-12 21:00:00 5.5 5 Sudoeste 23 Oeste 0 -- -- 95
2019-12-12 20:00:00 6.1 13 Oeste 33 Oeste 0.4 -- -- 95
2019-12-12 19:00:00 6 16 Sudoeste 28 Oeste 1 -- -- 94
2019-12-12 18:00:00 6.1 16 Oeste 30 Oeste 1.4 -- -- 92
2019-12-12 17:00:00 6.9 13 Oeste 26 Oeste 0 -- -- 85
2019-12-12 16:00:00 7.7 11 Sudoeste 42 Oeste 0 -- -- 79
2019-12-12 15:00:00 8.5 18 Oeste 37 Oeste 0 -- -- 72
2019-12-12 14:00:00 8.7 17 Oeste 40 Oeste 0 -- -- 70
2019-12-12 13:00:00 9.5 17 Oeste 38 Oeste 0 -- -- 68
2019-12-12 12:00:00 7.7 14 Sudoeste 28 Sudoeste 0 -- -- 76
2019-12-12 11:00:00 7.9 15 Sudoeste 30 Sudoeste 0 -- -- 74
2019-12-12 10:00:00 7 5 Este 15 Oeste 0 -- -- 78
2019-12-12 09:00:00 4.4 4 Oeste 13 Norte 0 -- -- 84
2019-12-12 08:00:00 3.6 4 Noroeste 10 Noroeste 0 -- -- 86
2019-12-12 07:00:00 4.9 6 Noroeste 16 Noroeste 0 -- -- 82
2019-12-12 06:00:00 3.1 6 Norte 13 Oeste 0 -- -- 86
2019-12-12 05:00:00 4.1 4 Sudoeste 22 Oeste 0 -- -- 83
2019-12-12 04:00:00 5.2 11 Oeste 26 Noroeste 0 -- -- 80
2019-12-12 03:00:00 4.7 8 Noroeste 23 Noroeste 0 -- -- 80
2019-12-12 02:00:00 4.6 4 Oeste 19 Sudoeste 0 -- -- 78
2019-12-12 01:00:00 5.8 6 Noroeste 32 Oeste 0 -- -- 69
2019-12-12 00:00:00 6 9 Oeste 27 Sudoeste 0 -- -- 69
2019-12-11 23:00:00 6.4 9 Oeste 35 Oeste 0 -- -- 65
2019-12-11 22:00:00 6 10 Sudoeste 30 Oeste 0 -- -- 65
2019-12-11 21:00:00 7.1 12 Noroeste 31 Noroeste 0 -- -- 62
2019-12-11 20:00:00 7.8 12 Noroeste 28 Noroeste 0 -- -- 59
2019-12-11 19:00:00 7.8 12 Oeste 25 Oeste 0 -- -- 69
2019-12-11 18:00:00 7 6 Oeste 14 Oeste 0 -- -- 84
2019-12-11 17:00:00 10.3 2 Sudoeste 18 Oeste 0 -- -- 73
2019-12-11 16:00:00 8.9 10 Oeste 28 Oeste 0 -- -- 81
2019-12-11 15:00:00 7.8 15 Oeste 27 Sudoeste 0 -- -- 83
2019-12-11 14:00:00 7.6 11 Sudoeste 26 Sudoeste 0 -- -- 89
2019-12-11 13:00:00 9.3 20 Sudoeste 27 Sur 0 -- -- 80
2019-12-11 12:00:00 6.7 10 Sudoeste 15 Sudoeste 0 -- -- 88
2019-12-11 11:00:00 7.8 9 Sudoeste 13 Sur 0 -- -- 78
2019-12-11 10:00:00 5.2 9 Este 15 Nordeste 0 -- -- 82
2019-12-11 09:00:00 1.9 8 Nordeste 15 Este 0 -- -- 92
2019-12-11 08:00:00 1.8 9 Nordeste 17 Nordeste 0 -- -- 91
2019-12-11 07:00:00 2.3 11 Nordeste 15 Nordeste 0 -- -- 91
2019-12-11 06:00:00 3.1 10 Nordeste 14 Nordeste 0 -- -- 90
2019-12-11 05:00:00 3 9 Este 17 Nordeste 0 -- -- 91
2019-12-11 04:00:00 3.4 12 Nordeste 18 Nordeste 0 -- -- 91
2019-12-11 03:00:00 3.4 11 Nordeste 15 Nordeste 0 -- -- 91
2019-12-11 02:00:00 2.7 9 Nordeste 12 Este 0 -- -- 92
2019-12-11 01:00:00 3.4 8 Nordeste 17 Este 0 -- -- 93
2019-12-11 00:00:00 2.9 10 Nordeste 14 Nordeste 0 -- -- 95
2019-12-10 23:00:00 3.3 6 Nordeste 12 Nordeste 0 -- -- 91
2019-12-10 22:00:00 3 9 Nordeste 13 Nordeste 0 -- -- 93
2019-12-10 21:00:00 3.4 8 Nordeste 12 Norte 0 -- -- 93
2019-12-10 20:00:00 3.1 6 Nordeste 11 Nordeste 0 -- -- 92
2019-12-10 19:00:00 3.1 6 Nordeste 10 Nordeste 0 -- -- 92
2019-12-10 18:00:00 4.8 6 Nordeste 8 Este 0 -- -- 87
2019-12-10 17:00:00 9 3 Sudoeste 13 Sudoeste 0 -- -- 72
2019-12-10 16:00:00 10.9 8 Sudoeste 15 Sudoeste 0 -- -- 65
2019-12-10 15:00:00 10.2 10 Sudoeste 21 Oeste 0 -- -- 67
2019-12-10 14:00:00 9.8 13 Sudoeste 22 Sudoeste 0 -- -- 73
2019-12-10 13:00:00 6.8 12 Sudoeste 20 Sudoeste 0 -- -- 81
2019-12-10 12:00:00 6.2 12 Sudoeste 18 Sudoeste 0 -- -- 79
2019-12-10 11:00:00 6.1 6 Sudoeste 11 Sudoeste 0 -- -- 79
2019-12-10 10:00:00 4.8 5 Este 14 Este 0 -- -- 78
2019-12-10 09:00:00 2.4 4 Nordeste 11 Norte 0 -- -- 75
2019-12-10 08:00:00 4.3 11 Nordeste 22 Este 0 -- -- 68
2019-12-10 07:00:00 6.4 6 Este 33 Noroeste 0 -- -- 60
2019-12-10 06:00:00 6.9 8 Noroeste 23 Oeste 0 -- -- 59
2019-12-10 05:00:00 6.7 5 Norte 23 Noroeste 0 -- -- 60
2019-12-10 04:00:00 7.5 10 Noroeste 29 Noroeste 0 -- -- 57
2019-12-10 03:00:00 6.1 9 Sudoeste 22 Oeste 0 -- -- 69
2019-12-10 02:00:00 6.7 4 Oeste 26 Noroeste 0 -- -- 68
2019-12-10 01:00:00 6.6 7 Sudoeste 20 Noroeste 0 -- -- 69
2019-12-10 00:00:00 5.9 6 Sudoeste 19 Oeste 0 -- -- 73
2019-12-09 23:00:00 6.6 3 Sudoeste 19 Oeste 0 -- -- 70
2019-12-09 22:00:00 6.4 6 Oeste 21 Noroeste 0 -- -- 69
2019-12-09 21:00:00 6.7 6 Sudoeste 20 Oeste 0 -- -- 72
2019-12-09 20:00:00 7 9 Oeste 19 Oeste 0 -- -- 73
2019-12-09 19:00:00 9.1 13 Sudoeste 26 Sudoeste 0 -- -- 62
2019-12-09 18:00:00 9.6 9 Sudoeste 32 Oeste 0 -- -- 63
2019-12-09 17:00:00 11.1 12 Oeste 41 Sudoeste 0 -- -- 63
2019-12-09 16:00:00 12.1 19 Oeste 44 Oeste 0 -- -- 61
2019-12-09 15:00:00 12.5 19 Oeste 46 Oeste 0 -- -- 61
2019-12-09 14:00:00 12.5 21 Oeste 45 Oeste 0 -- -- 65
2019-12-09 13:00:00 11.5 22 Oeste 48 Oeste 0 -- -- 68
2019-12-09 12:00:00 10.6 24 Oeste 49 Sudoeste 0 -- -- 72
2019-12-09 11:00:00 9.6 24 Oeste 48 Oeste 0 -- -- 75
2019-12-09 10:00:00 7.9 15 Oeste 36 Oeste 0 -- -- 88
2019-12-09 09:00:00 4 6 Oeste 18 Noroeste 0 -- -- 100
2019-12-09 08:00:00 3.5 5 Oeste 26 Norte 0 -- -- 100
2019-12-09 07:00:00 2.8 3 Norte 7 Norte 0 -- -- 100
2019-12-09 06:00:00 4.5 5 Noroeste 10 Oeste 0 -- -- 100
2019-12-09 05:00:00 5.8 4 Sudoeste 10 Oeste 0 -- -- 100
2019-12-09 04:00:00 5.9 4 Sudoeste 12 Sudoeste 0 -- -- 100
2019-12-09 03:00:00 5.8 4 Sur 10 Sudoeste 0 -- -- 100
2019-12-09 02:00:00 5.6 2 Sudeste 8 Oeste 0 -- -- 100
2019-12-09 01:00:00 5.5 3 Nordeste 9 Sudoeste 0 -- -- 100
2019-12-09 00:00:00 5.5 4 Oeste 8 Sudoeste 0 -- -- 100
2019-12-08 23:00:00 5.5 3 Este 10 Nordeste 0 -- -- 100
2019-12-08 22:00:00 5.3 3 Nordeste 7 Este 0 -- -- 100
2019-12-08 21:00:00 5.3 3 Sudoeste 8 Este 0 -- -- 100
2019-12-08 20:00:00 5.2 4 Este 9 Este 0 -- -- 100
2019-12-08 19:00:00 5.3 0 Calma 6 Sudeste 0 -- -- 100
2019-12-08 18:00:00 5.4 0 Calma 8 Sur 0 -- -- 100
2019-12-08 17:00:00 5.4 4 Sur 9 Sudoeste 0 -- -- 100
2019-12-08 16:00:00 5.3 5 Sudoeste 10 Sudoeste 0 -- -- 100
2019-12-08 15:00:00 5.3 8 Sudoeste 10 Sudoeste 0 -- -- 100
2019-12-08 14:00:00 5.1 5 Sudoeste 9 Sudoeste 0 -- -- 100
2019-12-08 13:00:00 5 4 Sudoeste 7 Sudoeste 0 -- -- 100
2019-12-08 12:00:00 4.7 2 Sudoeste 6 Sudoeste 0 -- -- 100
2019-12-08 11:00:00 3.7 3 Nordeste 9 Norte 0 -- -- 100
2019-12-08 10:00:00 3.3 6 Norte 10 Norte 0 -- -- 100
2019-12-08 09:00:00 3.3 6 Nordeste 9 Norte 0 -- -- 100
2019-12-08 08:00:00 3.5 6 Norte 9 Norte 0 -- -- 100
2019-12-08 07:00:00 3.6 5 Nordeste 10 Norte 0 -- -- 100
2019-12-08 06:00:00 3.1 7 Norte 11 Nordeste 0.2 -- -- 100
2019-12-08 05:00:00 3.4 5 Norte 9 Norte 0 -- -- 100
2019-12-08 04:00:00 4.1 2 Noroeste 6 Norte 0 -- -- 100
2019-12-08 03:00:00 4.2 4 Nordeste 6 Nordeste 0 -- -- 100
2019-12-08 02:00:00 4.4 4 Sur 9 Nordeste 0 -- -- 100
2019-12-08 01:00:00 4.4 3 Norte 8 Norte 0 -- -- 100
2019-12-08 00:00:00 4.4 4 Norte 9 Norte 0 -- -- 100
2019-12-07 23:00:00 4.7 2 Nordeste 10 Nordeste 0 -- -- 100
2019-12-07 22:00:00 5.4 3 Nordeste 10 Este 0 -- -- 100
2019-12-07 21:00:00 5.6 4 Este 9 Este 0 -- -- 100
2019-12-07 20:00:00 5.4 3 Norte 9 Norte 0 -- -- 100
2019-12-07 19:00:00 5.6 0 Calma 5 Este 0 -- -- 100
2019-12-07 18:00:00 5.8 2 Sudeste 5 Oeste 0 -- -- 100
2019-12-07 17:00:00 5.9 4 Oeste 6 Sudoeste 0 -- -- 100
2019-12-07 16:00:00 6.3 4 Sudoeste 8 Sudoeste 0 -- -- 100
2019-12-07 15:00:00 6.5 5 Oeste 9 Sur 0 -- -- 100
2019-12-07 14:00:00 6.4 5 Sur 9 Sur 0 -- -- 100
2019-12-07 13:00:00 6.7 4 Sudoeste 12 Sur 0 -- -- 100
2019-12-07 12:00:00 6.8 4 Sudoeste 10 Sudoeste 0 -- -- 100
2019-12-07 11:00:00 6 2 Sur 15 Norte 0 -- -- 100
2019-12-07 10:00:00 4.8 10 Nordeste 17 Nordeste 0 -- -- 100
2019-12-07 09:00:00 4 11 Nordeste 16 Nordeste 0 -- -- 100
2019-12-07 08:00:00 3.9 9 Nordeste 15 Este 0 -- -- 100
2019-12-07 07:00:00 3.1 7 Nordeste 17 Norte 0 -- -- 100
2019-12-07 06:00:00 3.4 12 Nordeste 16 Nordeste 0 -- -- 100
2019-12-07 05:00:00 3.4 12 Nordeste 21 Nordeste 0 -- -- 100
2019-12-07 04:00:00 3.8 10 Nordeste 15 Nordeste 0 -- -- 100
2019-12-07 03:00:00 3.7 10 Nordeste 17 Nordeste 0 -- -- 100
2019-12-07 02:00:00 3.4 12 Este 16 Este 0 -- -- 100
2019-12-07 01:00:00 4.4 8 Nordeste 11 Este 0 -- -- 100
2019-12-07 00:00:00 3.8 6 Nordeste 9 Nordeste 0 -- -- 99
2019-12-06 23:00:00 4.1 4 Nordeste 8 Nordeste 0 -- -- 99
2019-12-06 22:00:00 5.3 6 Nordeste 9 Norte 0 -- -- 99
2019-12-06 21:00:00 5.5 3 Nordeste 8 Norte 0 -- -- 99
2019-12-06 20:00:00 5.3 5 Nordeste 9 Este 0 -- -- 98
2019-12-06 19:00:00 6.5 3 Norte 7 Nordeste 0 -- -- 97
2019-12-06 18:00:00 8.7 0 Calma 13 Sudoeste 0 -- -- 96
2019-12-06 17:00:00 9.5 11 Sudoeste 16 Sur 0 -- -- 94
2019-12-06 16:00:00 9.8 9 Sudoeste 15 Sur 0 -- -- 94
2019-12-06 15:00:00 9.8 6 Sudoeste 12 Sur 0 -- -- 94
2019-12-06 14:00:00 9 8 Sudoeste 12 Sudoeste 0 -- -- 96
2019-12-06 13:00:00 9.6 8 Sudoeste 14 Sur 0 -- -- 92
2019-12-06 12:00:00 11.6 10 Sudoeste 15 Sudoeste 0 -- -- 86
2019-12-06 11:00:00 10.5 3 Sudeste 9 Este 0 -- -- 90
2019-12-06 10:00:00 6.3 7 Este 13 Nordeste 0 -- -- 100
2019-12-06 09:00:00 4.3 8 Nordeste 10 Este 0 -- -- 98
2019-12-06 08:00:00 5.4 5 Nordeste 10 Nordeste 0 -- -- 97
2019-12-06 07:00:00 6.1 8 Nordeste 14 Nordeste 0 -- -- 96
2019-12-06 06:00:00 6.3 8 Nordeste 15 Norte 0 -- -- 96
2019-12-06 05:00:00 7.1 8 Nordeste 15 Nordeste 0 -- -- 97
2019-12-06 04:00:00 7 8 Nordeste 13 Nordeste 0 -- -- 97
2019-12-06 03:00:00 7.1 8 Nordeste 13 Nordeste 0 -- -- 97
2019-12-06 02:00:00 7.3 8 Nordeste 13 Este 0 -- -- 97
2019-12-06 01:00:00 7.3 8 Nordeste 15 Nordeste 0 -- -- 97
2019-12-06 00:00:00 6.9 10 Nordeste 14 Nordeste 0 -- -- 97
2019-12-05 23:00:00 7.8 9 Nordeste 11 Nordeste 0 -- -- 97
2019-12-05 22:00:00 8.6 6 Nordeste 10 Norte 0 -- -- 97
2019-12-05 21:00:00 8.8 6 Nordeste 13 Nordeste 0 -- -- 97
2019-12-05 20:00:00 9 7 Nordeste 12 Nordeste 0 -- -- 97
2019-12-05 19:00:00 9.1 6 Nordeste 8 Nordeste 0 -- -- 98
2019-12-05 18:00:00 9.4 4 Norte 9 Nordeste 0 -- -- 97
2019-12-05 17:00:00 9.6 5 Nordeste 10 Este 0 -- -- 97
2019-12-05 16:00:00 9.6 4 Norte 12 Nordeste 0.2 -- -- 97
2019-12-05 15:00:00 9.6 5 Este 19 Este 0 -- -- 97
2019-12-05 14:00:00 10.6 8 Sudeste 15 Sudeste 0 -- -- 90
2019-12-05 13:00:00 11.5 3 Este 18 Norte 0 -- -- 87
2019-12-05 12:00:00 10.1 9 Nordeste 13 Norte 0 -- -- 89
2019-12-05 11:00:00 9.2 4 Este 14 Este 0.2 -- -- 97
2019-12-05 10:00:00 8.4 5 Nordeste 10 Nordeste 0 -- -- 98
2019-12-05 09:00:00 7.9 5 Nordeste 17 Nordeste 0.4 -- -- 97
2019-12-05 08:00:00 7.7 10 Nordeste 14 Nordeste 0 -- -- 98
2019-12-05 07:00:00 7.7 8 Nordeste 14 Nordeste 0 -- -- 97
2019-12-05 06:00:00 7.8 9 Nordeste 15 Norte 0.4 -- -- 98
2019-12-05 05:00:00 7.7 10 Nordeste 15 Este 1.2 -- -- 98
2019-12-05 04:00:00 7.6 9 Nordeste 13 Nordeste 1.4 -- -- 98
2019-12-05 03:00:00 7.6 6 Nordeste 17 Nordeste 1.6 -- -- 96
2019-12-05 02:00:00 8.3 6 Este 35 Este 1.8 -- -- 92
2019-12-05 01:00:00 8.6 14 Nordeste 27 Este 1.4 -- -- 93
2019-12-05 00:00:00 8.3 11 Nordeste 19 Nordeste 1.2 -- -- 96
2019-12-04 23:00:00 8.8 12 Nordeste 23 Nordeste 0.2 -- -- 93
2019-12-04 22:00:00 8.9 16 Nordeste 26 Norte 0.4 -- -- 91
2019-12-04 21:00:00 9 17 Nordeste 33 Nordeste 0.6 -- -- 90
2019-12-04 20:00:00 9 10 Este 26 Este 1.2 -- -- 92
2019-12-04 19:00:00 8 7 Nordeste 18 Nordeste 0.2 -- -- 94
2019-12-04 18:00:00 7.4 13 Nordeste 20 Nordeste 0.2 -- -- 93
2019-12-04 17:00:00 7.8 9 Nordeste 15 Nordeste 1.4 -- -- 92
2019-12-04 16:00:00 9.2 12 Nordeste 15 Norte 0 -- -- 83
2019-12-04 15:00:00 9.6 4 Nordeste 14 Norte 0 -- -- 84
2019-12-04 14:00:00 9.3 7 Nordeste 13 Nordeste 0 -- -- 77
2019-12-04 13:00:00 9.3 9 Nordeste 18 Nordeste 0 -- -- 71
2019-12-04 12:00:00 9.6 10 Nordeste 20 Este 0 -- -- 72
2019-12-04 11:00:00 9.1 9 Nordeste 18 Nordeste 0 -- -- 71
2019-12-04 10:00:00 8.9 6 Nordeste 20 Norte 0 -- -- 66
2019-12-04 09:00:00 7.3 4 Norte 23 Este 0 -- -- 73
2019-12-04 08:00:00 8.3 13 Este 23 Este 0 -- -- 68
2019-12-04 07:00:00 8.7 6 Nordeste 25 Nordeste 0 -- -- 67
2019-12-04 06:00:00 9 12 Nordeste 28 Este 0 -- -- 67
2019-12-04 05:00:00 8.1 16 Nordeste 27 Nordeste 0 -- -- 72
2019-12-04 04:00:00 7.7 11 Nordeste 21 Nordeste 0 -- -- 75
2019-12-04 03:00:00 6 9 Nordeste 23 Norte 0 -- -- 81
2019-12-04 02:00:00 5.1 13 Nordeste 20 Nordeste 0 -- -- 89
2019-12-04 01:00:00 4.3 12 Nordeste 15 Este 0 -- -- 95
2019-12-04 00:00:00 4 5 Este 16 Nordeste 0 -- -- 94
2019-12-03 23:00:00 3.6 8 Nordeste 13 Nordeste 0 -- -- 96
2019-12-03 22:00:00 1.9 8 Nordeste 13 Nordeste 0 -- -- 98
2019-12-03 21:00:00 1.5 3 Nordeste 6 Este 0 -- -- 96
2019-12-03 20:00:00 2.6 0 Calma 7 Sur 0 -- -- 94
2019-12-03 19:00:00 3.8 7 Nordeste 14 Nordeste 0 -- -- 94
2019-12-03 18:00:00 2.9 4 Este 6 Este 0 -- -- 92
2019-12-03 17:00:00 5.4 4 Oeste 10 Sudoeste 0 -- -- 86
2019-12-03 16:00:00 7.2 5 Sudoeste 9 Sudoeste 0 -- -- 80
2019-12-03 15:00:00 4.9 2 Sudeste 11 Sudeste 0 -- -- 89
2019-12-03 14:00:00 4.6 6 Sudeste 13 Sudeste 0 -- -- 90
2019-12-03 13:00:00 4.3 7 Este 14 Este 0 -- -- 92
2019-12-03 12:00:00 3.9 6 Este 14 Sudeste 0 -- -- 96
2019-12-03 11:00:00 3.7 6 Este 14 Este 0 -- -- 99
2019-12-03 10:00:00 3.1 4 Este 12 Este 0 -- -- 100
2019-12-03 09:00:00 2.6 7 Este 14 Este 0 -- -- 100
2019-12-03 08:00:00 2.7 4 Sudeste 9 Sudeste 0 -- -- 99
2019-12-03 07:00:00 3.2 3 Sudoeste 10 Sudeste 0 -- -- 99
2019-12-03 06:00:00 3.5 3 Sudeste 7 Sudeste 0 -- -- 99
2019-12-03 05:00:00 3.6 3 Oeste 7 Oeste 0 -- -- 99
2019-12-03 04:00:00 4.1 2 Oeste 7 Oeste 0 -- -- 99
2019-12-03 03:00:00 4.4 2 Nordeste 9 Oeste 0 -- -- 99
2019-12-03 02:00:00 4.7 6 Oeste 9 Oeste 0 -- -- 99
2019-12-03 01:00:00 4.5 3 Nordeste 6 Este 0 -- -- 99
2019-12-03 00:00:00 3.7 3 Nordeste 6 Norte 0 -- -- 99
2019-12-02 23:00:00 1.7 4 Nordeste 7 Nordeste 0 -- -- 97
2019-12-02 22:00:00 2.2 5 Nordeste 8 Este 0 -- -- 97
2019-12-02 21:00:00 2.4 6 Nordeste 9 Nordeste 0 -- -- 98
2019-12-02 20:00:00 2.8 5 Nordeste 8 Norte 0 -- -- 97
2019-12-02 19:00:00 3.5 4 Norte 7 Norte 0 -- -- 95
2019-12-02 18:00:00 5.5 3 Nordeste 12 Sudoeste 0 -- -- 89
2019-12-02 17:00:00 9 11 Sudoeste 15 Sudoeste 0 -- -- 81
2019-12-02 16:00:00 10 8 Sudoeste 17 Sudoeste 0 -- -- 78
2019-12-02 15:00:00 9.8 12 Sudoeste 19 Sudoeste 0 -- -- 78
2019-12-02 14:00:00 11.1 10 Sudoeste 15 Sudoeste 0 -- -- 73
2019-12-02 13:00:00 10 11 Sudoeste 17 Sudoeste 0 -- -- 75
2019-12-02 12:00:00 10 10 Sudoeste 18 Sudoeste 0 -- -- 75
2019-12-02 11:00:00 9.8 8 Sudeste 18 Nordeste 0 -- -- 72
2019-12-02 10:00:00 4.8 12 Nordeste 18 Este 0 -- -- 88
2019-12-02 09:00:00 2.7 7 Nordeste 13 Nordeste 0 -- -- 90
2019-12-02 08:00:00 1.8 9 Nordeste 14 Nordeste 0 -- -- 92
2019-12-02 07:00:00 4 9 Nordeste 15 Nordeste 0 -- -- 88
2019-12-02 06:00:00 3.9 12 Nordeste 17 Nordeste 0 -- -- 88
2019-12-02 05:00:00 4 14 Nordeste 18 Norte 0 -- -- 90
2019-12-02 04:00:00 3.6 9 Nordeste 15 Nordeste 0 -- -- 95
2019-12-02 03:00:00 3.2 12 Nordeste 17 Nordeste 0 -- -- 96
2019-12-02 02:00:00 3.3 12 Nordeste 16 Este 0 -- -- 95
2019-12-02 01:00:00 3.9 9 Nordeste 13 Nordeste 0 -- -- 94
2019-12-02 00:00:00 4.6 10 Nordeste 15 Nordeste 0 -- -- 93
2019-12-01 23:00:00 4.9 11 Nordeste 16 Nordeste 0 -- -- 92
2019-12-01 22:00:00 5.1 12 Nordeste 15 Este 0 -- -- 91
2019-12-01 21:00:00 5.2 8 Nordeste 14 Norte 0 -- -- 92
2019-12-01 20:00:00 4 8 Nordeste 10 Nordeste 0 -- -- 93
2019-12-01 19:00:00 5.2 5 Nordeste 7 Nordeste 0 -- -- 89
2019-12-01 18:00:00 7 4 Nordeste 13 Sudoeste 0 -- -- 83
2019-12-01 17:00:00 11.3 6 Sudoeste 17 Sudoeste 0 -- -- 67
2019-12-01 16:00:00 12.4 14 Sudoeste 20 Sudoeste 0 -- -- 66
2019-12-01 15:00:00 11.5 13 Sudoeste 22 Sudoeste 0 -- -- 70
2019-12-01 14:00:00 12.2 10 Sudoeste 18 Sur 0 -- -- 71
2019-12-01 13:00:00 11.9 8 Sudoeste 16 Sudoeste 0 -- -- 71
2019-12-01 12:00:00 12 10 Sudoeste 17 Sudoeste 0 -- -- 71
2019-12-01 11:00:00 11.9 5 Sudoeste 12 Este 0 -- -- 69
2019-12-01 10:00:00 8.2 10 Este 13 Este 0 -- -- 88
2019-12-01 09:00:00 3.5 9 Este 12 Nordeste 0 -- -- 97
2019-12-01 08:00:00 3.4 5 Nordeste 9 Este 0 -- -- 97
2019-12-01 07:00:00 3.5 5 Nordeste 8 Nordeste 0 -- -- 96
2019-12-01 06:00:00 4.5 5 Nordeste 9 Este 0 -- -- 94
2019-12-01 05:00:00 6.6 2 Nordeste 6 Sudoeste 0 -- -- 91
2019-12-01 04:00:00 7.9 4 Nordeste 9 Este 0 -- -- 91
2019-12-01 03:00:00 9.3 5 Norte 19 Norte 0 -- -- 79
2019-12-01 02:00:00 10.7 7 Noroeste 28 Noroeste 0 -- -- 71
2019-12-01 01:00:00 10.7 8 Sudoeste 16 Sudoeste 0 -- -- 90
2019-12-01 00:00:00 10.5 4 Este 17 Este 0 -- -- 90
2019-11-30 23:00:00 10.6 3 Nordeste 19 Nordeste 0 -- -- 81
2019-11-30 22:00:00 10.1 14 Nordeste 17 Nordeste 0 -- -- 80
2019-11-30 21:00:00 10.2 6 Nordeste 14 Nordeste 0 -- -- 81
2019-11-30 20:00:00 10.4 6 Nordeste 14 Nordeste 0 -- -- 79
2019-11-30 19:00:00 10.3 11 Nordeste 16 Nordeste 0 -- -- 80
2019-11-30 18:00:00 10.1 13 Nordeste 16 Nordeste 0 -- -- 82
2019-11-30 17:00:00 14 4 Nordeste 11 Sudoeste 0 -- -- 68
2019-11-30 16:00:00 15.4 6 Este 15 Este 0 -- -- 66
2019-11-30 15:00:00 14.4 10 Este 20 Este 0 -- -- 62
2019-11-30 14:00:00 12.9 5 Este 10 Este 0 -- -- 70
2019-11-30 13:00:00 12 6 Nordeste 15 Este 0 -- -- 67
2019-11-30 12:00:00 11.3 9 Este 16 Este 0 -- -- 66
2019-11-30 11:00:00 10.2 8 Nordeste 17 Este 0 -- -- 70
2019-11-30 10:00:00 7.8 13 Nordeste 18 Este 0 -- -- 82
2019-11-30 09:00:00 5.8 10 Nordeste 19 Nordeste 0 -- -- 86
2019-11-30 08:00:00 5.1 12 Nordeste 19 Nordeste 0 -- -- 88
2019-11-30 07:00:00 5.2 13 Nordeste 20 Nordeste 0 -- -- 88
2019-11-30 06:00:00 4.5 13 Nordeste 21 Nordeste 0 -- -- 91
2019-11-30 05:00:00 5.1 11 Nordeste 19 Nordeste 0 -- -- 89
2019-11-30 04:00:00 5.4 14 Nordeste 18 Nordeste 0 -- -- 92
2019-11-30 03:00:00 5.4 10 Nordeste 16 Este 0 -- -- 90
2019-11-30 02:00:00 5 13 Nordeste 16 Nordeste 0 -- -- 91
2019-11-30 01:00:00 5.8 9 Nordeste 15 Nordeste 0 -- -- 89
2019-11-30 00:00:00 6 12 Nordeste 17 Nordeste 0 -- -- 87
2019-11-29 23:00:00 5.4 8 Nordeste 12 Este 0 -- -- 89
2019-11-29 22:00:00 5.8 7 Nordeste 11 Este 0 -- -- 86
2019-11-29 21:00:00 5.8 8 Nordeste 11 Este 0 -- -- 87
2019-11-29 20:00:00 6.9 7 Nordeste 10 Nordeste 0 -- -- 81
2019-11-29 19:00:00 10.9 5 Este 14 Oeste 0 -- -- 66
2019-11-29 18:00:00 12.9 6 Sudoeste 22 Oeste 0 -- -- 58
2019-11-29 17:00:00 15.3 14 Oeste 26 Oeste 0 -- -- 51
2019-11-29 16:00:00 16.7 11 Oeste 26 Oeste 0 -- -- 51
2019-11-29 15:00:00 16.9 14 Oeste 35 Oeste 0 -- -- 55
2019-11-29 14:00:00 16.3 15 Oeste 28 Sudoeste 0 -- -- 60
2019-11-29 13:00:00 16.4 15 Sudoeste 25 Sudoeste 0 -- -- 67
2019-11-29 12:00:00 15.5 13 Sudoeste 22 Sudoeste 0 -- -- 73
2019-11-29 11:00:00 15.5 8 Sur 12 Sur 0 -- -- 71
2019-11-29 10:00:00 12.9 5 Sudoeste 8 Sur 0 -- -- 79
2019-11-29 09:00:00 10.1 5 Sudoeste 27 Noroeste 0 -- -- 85
2019-11-29 08:00:00 10.1 6 Sudoeste 15 Sudoeste 0 -- -- 85
2019-11-29 07:00:00 10.8 8 Oeste 16 Sudoeste 0 -- -- 82
2019-11-29 06:00:00 11.5 6 Oeste 15 Oeste 0 -- -- 79
2019-11-29 05:00:00 11.1 3 Este 10 Sudoeste 0 -- -- 80
2019-11-29 04:00:00 11.1 4 Oeste 10 Oeste 0 -- -- 80
2019-11-29 03:00:00 10.5 3 Este 9 Sur 0 -- -- 81
2019-11-29 02:00:00 11.3 8 Nordeste 14 Este 0 -- -- 78
2019-11-29 01:00:00 10.4 7 Nordeste 10 Este 0 -- -- 81
2019-11-29 00:00:00 11.6 2 Sudoeste 12 Oeste 0 -- -- 74
2019-11-28 23:00:00 11.5 2 Sur 10 Noroeste 0 -- -- 78
2019-11-28 22:00:00 11 3 Noroeste 11 Norte 0 -- -- 83
2019-11-28 21:00:00 10.3 3 Nordeste 8 Sudoeste 0 -- -- 90
2019-11-28 20:00:00 12.3 6 Sudoeste 15 Oeste 0 -- -- 76
2019-11-28 19:00:00 11.9 3 Norte 10 Oeste 0 -- -- 78
2019-11-28 18:00:00 12.9 2 Noroeste 14 Sudoeste 0 -- -- 73
2019-11-28 17:00:00 13.6 5 Oeste 18 Oeste 0 -- -- 70
2019-11-28 16:00:00 14.9 10 Oeste 26 Oeste 0 -- -- 65
2019-11-28 15:00:00 15.9 13 Oeste 31 Sudoeste 0 -- -- 62
2019-11-28 14:00:00 15.5 10 Sudoeste 26 Noroeste 0 -- -- 64
2019-11-28 13:00:00 15.4 10 Oeste 32 Sudoeste 0 -- -- 61
2019-11-28 12:00:00 13.4 8 Sudoeste 17 Sudoeste 0 -- -- 71
2019-11-28 11:00:00 12.9 9 Sur 19 Sur 0 -- -- 73
2019-11-28 10:00:00 11.4 3 Este 7 Sudoeste 0 -- -- 81
2019-11-28 09:00:00 6.1 5 Este 12 Este 0 -- -- 95
2019-11-28 08:00:00 5.6 5 Nordeste 8 Nordeste 0 -- -- 95
2019-11-28 07:00:00 5.5 3 Nordeste 6 Norte 0 -- -- 93
2019-11-28 06:00:00 6.5 4 Nordeste 9 Este 0 -- -- 90
2019-11-28 05:00:00 8 2 Norte 10 Nordeste 0 -- -- 87
2019-11-28 04:00:00 9.4 9 Nordeste 17 Nordeste 0 -- -- 82
2019-11-28 03:00:00 8.9 4 Nordeste 16 Noroeste 0 -- -- 82
2019-11-28 02:00:00 9.6 3 Noroeste 12 Norte 0 -- -- 79
2019-11-28 01:00:00 9.1 5 Nordeste 12 Norte 0 -- -- 79
2019-11-28 00:00:00 9.2 7 Nordeste 13 Norte 0 -- -- 77
2019-11-27 23:00:00 9.8 6 Norte 15 Noroeste 0 -- -- 74
2019-11-27 22:00:00 10.3 4 Nordeste 13 Norte 0 -- -- 72
2019-11-27 21:00:00 10.7 4 Norte 13 Norte 0 -- -- 70
2019-11-27 20:00:00 10.1 9 Nordeste 13 Nordeste 0 -- -- 73
2019-11-27 19:00:00 9 4 Nordeste 8 Norte 0 -- -- 78
2019-11-27 18:00:00 11.4 3 Noroeste 18 Oeste 0 -- -- 68
2019-11-27 17:00:00 13.3 10 Oeste 31 Sudoeste 0 -- -- 60
2019-11-27 16:00:00 14.6 12 Oeste 33 Oeste 0 -- -- 58
2019-11-27 15:00:00 14.5 11 Oeste 31 Sudoeste 0 -- -- 61
2019-11-27 14:00:00 13.4 15 Oeste 29 Oeste 0 -- -- 63
2019-11-27 06:00:00 10.8 16 Sudoeste 30 Sudoeste 0 -- -- 87
2019-11-27 05:00:00 10.5 8 Sudoeste 15 Sudoeste 0 -- -- 90
2019-11-27 04:00:00 10.9 5 Noroeste 21 Oeste 0.2 -- -- 92
2019-11-27 03:00:00 8.6 4 Sudoeste 13 Nordeste 0 -- -- 97
2019-11-27 02:00:00 8 6 Nordeste 14 Nordeste 0 -- -- 96
2019-11-27 01:00:00 9.3 9 Nordeste 14 Norte 0 -- -- 95
2019-11-27 00:00:00 9.5 10 Nordeste 14 Nordeste 0 -- -- 95
2019-11-26 23:00:00 9.7 10 Nordeste 13 Nordeste 0.4 -- -- 96
2019-11-26 22:00:00 9.8 10 Nordeste 15 Nordeste 0 -- -- 94
2019-11-26 21:00:00 9 5 Nordeste 8 Nordeste 0 -- -- 93
2019-11-26 20:00:00 9.4 3 Noroeste 14 Norte 0 -- -- 91
2019-11-26 19:00:00 10.3 12 Nordeste 18 Nordeste 0 -- -- 87
2019-11-26 18:00:00 10 8 Nordeste 10 Nordeste 0 -- -- 90
2019-11-26 17:00:00 12.9 4 Sudoeste 15 Sur 0 -- -- 79
2019-11-26 16:00:00 13.2 10 Sudoeste 14 Sur 0 -- -- 77
2019-11-26 15:00:00 13.7 6 Sur 16 Sudoeste 0 -- -- 74
2019-11-26 14:00:00 13.3 10 Sudoeste 17 Sudoeste 0 -- -- 78
2019-11-26 13:00:00 13.9 10 Sudoeste 16 Sudoeste 0 -- -- 76
2019-11-26 12:00:00 13.1 7 Sudoeste 15 Sur 0 -- -- 77
2019-11-26 11:00:00 12.4 10 Sudoeste 14 Sur 0 -- -- 79
2019-11-26 10:00:00 8.5 7 Este 12 Este 0 -- -- 87
2019-11-26 09:00:00 5.1 11 Nordeste 15 Nordeste 0 -- -- 95
2019-11-26 08:00:00 5.1 10 Nordeste 14 Nordeste 0 -- -- 96
2019-11-26 07:00:00 4.7 6 Nordeste 14 Nordeste 0 -- -- 97
2019-11-26 06:00:00 4.5 9 Este 19 Nordeste 0 -- -- 96
2019-11-26 05:00:00 4.7 12 Nordeste 18 Nordeste 0 -- -- 95
2019-11-26 04:00:00 5.4 11 Nordeste 14 Nordeste 0 -- -- 95
2019-11-26 03:00:00 5.7 9 Nordeste 18 Nordeste 0 -- -- 94
2019-11-26 02:00:00 6.2 12 Nordeste 20 Nordeste 0 -- -- 96
2019-11-26 01:00:00 6.3 8 Nordeste 15 Nordeste 0 -- -- 95
2019-11-26 00:00:00 7.3 10 Nordeste 15 Nordeste 0 -- -- 96
2019-11-25 23:00:00 6.8 9 Nordeste 15 Norte -- -- -- 93
2019-11-25 22:00:00 7.9 12 Nordeste 14 Nordeste 0 -- -- 93
2019-11-25 21:00:00 7.9 8 Nordeste 13 Norte 0 -- -- 90
2019-11-25 20:00:00 7.6 8 Nordeste 11 Nordeste 0 -- -- 94
2019-11-25 19:00:00 8.3 6 Nordeste 11 Nordeste 0 -- -- 91
2019-11-25 18:00:00 10.4 6 Nordeste 17 Sudeste 0 -- -- 84
2019-11-25 17:00:00 13.5 2 Oeste 11 Sudoeste 0 -- -- 75
2019-11-25 16:00:00 14.7 8 Sudoeste 19 Sur 0 -- -- 70
2019-11-25 15:00:00 14.7 12 Sur 16 Sur 0 -- -- 69
2019-11-25 14:00:00 14 12 Sudoeste 18 Sudoeste 0 -- -- 70
2019-11-25 13:00:00 12.3 11 Sur 17 Sudoeste 0 -- -- 74
2019-11-25 12:00:00 11.4 9 Sudoeste 15 Sudoeste 0 -- -- 75
2019-11-25 11:00:00 10.3 7 Sudoeste 12 Sudoeste 0 -- -- 74
2019-11-25 10:00:00 8.1 3 Sur 15 Nordeste 0 -- -- 83
2019-11-25 09:00:00 3.5 9 Nordeste 14 Este 0 -- -- 93
2019-11-25 08:00:00 3.2 8 Nordeste 14 Nordeste 0 -- -- 92
2019-11-25 07:00:00 3.4 8 Nordeste 12 Este 0 -- -- 94
2019-11-25 06:00:00 3.9 5 Norte 24 Este 0 -- -- 92
2019-11-25 05:00:00 4.5 3 Noroeste 13 Noroeste 0 -- -- 90
2019-11-25 04:00:00 6.6 5 Sur 16 Noroeste 0 -- -- 83
2019-11-25 03:00:00 3.4 5 Este 9 Este 0 -- -- 95
2019-11-25 02:00:00 4.7 3 Nordeste 12 Este 0 -- -- 94
2019-11-25 01:00:00 5 4 Nordeste 18 Este 0 -- -- 94
2019-11-25 00:00:00 4.1 6 Nordeste 10 Nordeste 0 -- -- 96
2019-11-24 23:00:00 4 4 Nordeste 17 Este 0 -- -- 95
2019-11-24 22:00:00 4 6 Nordeste 9 Nordeste 0 -- -- 93
2019-11-24 21:00:00 5.5 6 Nordeste 10 Nordeste 0 -- -- 90
2019-11-24 20:00:00 6.7 4 Sudoeste 10 Este 0 -- -- 88
2019-11-24 19:00:00 7.5 4 Nordeste 8 Sudoeste 0 -- -- 84
2019-11-24 18:00:00 9.5 3 Oeste 14 Sudoeste 0 -- -- 75
2019-11-24 17:00:00 13.3 4 Oeste 24 Oeste 0 -- -- 59
2019-11-24 16:00:00 12.7 12 Sudoeste 25 Sudoeste 0 -- -- 60
2019-11-24 15:00:00 13.7 12 Sudoeste 31 Sudoeste 0 -- -- 59
2019-11-24 14:00:00 13.2 16 Sudoeste 32 Sudoeste 0 -- -- 62
2019-11-24 13:00:00 14 5 Noroeste 26 Noroeste 0 -- -- 49
2019-11-24 12:00:00 12.9 6 Noroeste 28 Noroeste 0 -- -- 53
2019-11-24 11:00:00 11.2 9 Norte 25 Noroeste 0 -- -- 57
2019-11-24 10:00:00 9.4 12 Norte 29 Norte 0 -- -- 61
2019-11-24 09:00:00 6.7 18 Norte 33 Norte 0 -- -- 70
2019-11-24 08:00:00 6 13 Norte 24 Noroeste 0 -- -- 72
2019-11-24 07:00:00 6.1 7 Norte 26 Norte 0 -- -- 72
2019-11-24 06:00:00 6.2 10 Nordeste 25 Norte 0 -- -- 73
2019-11-24 05:00:00 6.4 12 Norte 23 Norte 0 -- -- 72
2019-11-24 04:00:00 6.1 4 Norte 24 Noroeste 0 -- -- 73
2019-11-24 03:00:00 6.4 9 Norte 24 Norte 0 -- -- 71
2019-11-24 02:00:00 6.8 10 Norte 26 Noroeste 0 -- -- 70
2019-11-24 01:00:00 7.1 12 Noroeste 26 Noroeste 0 -- -- 68
2019-11-24 00:00:00 7.2 6 Norte 27 Noroeste 0 -- -- 66
2019-11-23 23:00:00 7 8 Sur 25 Norte 0 -- -- 67
2019-11-23 22:00:00 6.9 8 Noroeste 25 Noroeste 0 -- -- 70
2019-11-23 21:00:00 7.2 8 Sudoeste 26 Oeste 0 -- -- 73
2019-11-23 20:00:00 7.9 9 Oeste 39 Oeste 0 -- -- 71
2019-11-23 19:00:00 8.2 12 Oeste 35 Oeste 0 -- -- 75
2019-11-23 18:00:00 8.3 9 Noroeste 36 Oeste 0 -- -- 77
2019-11-23 17:00:00 8.9 12 Noroeste 36 Oeste 0 -- -- 76
2019-11-23 16:00:00 9.4 9 Oeste 42 Oeste 0 -- -- 75
2019-11-23 15:00:00 9.1 22 Oeste 43 Oeste 0 -- -- 74
2019-11-23 14:00:00 9.9 12 Oeste 35 Noroeste 0 -- -- 78
2019-11-23 13:00:00 8.9 17 Oeste 34 Oeste 0 -- -- 81
2019-11-23 12:00:00 8.3 18 Oeste 32 Oeste 0 -- -- 85
2019-11-23 11:00:00 8.4 9 Oeste 28 Oeste 0 -- -- 88
2019-11-23 10:00:00 8.7 9 Sudoeste 27 Sudoeste 0 -- -- 98
2019-11-23 09:00:00 6.5 3 Oeste 15 Oeste 0 -- -- 100
2019-11-23 08:00:00 6.8 5 Oeste 7 Sudoeste 0 -- -- 100
2019-11-23 07:00:00 6 7 Este 9 Este 0 -- -- 99
2019-11-23 06:00:00 7.6 3 Sur 5 Oeste 0 -- -- 99
2019-11-23 05:00:00 7.5 3 Oeste 6 Norte 0 -- -- 99
2019-11-23 04:00:00 7.7 3 Nordeste 8 Norte 0 -- -- 98
2019-11-23 03:00:00 8 6 Nordeste 10 Sudoeste 0 -- -- 98
2019-11-23 02:00:00 9.2 7 Sudoeste 19 Sudoeste 0 -- -- 97
2019-11-23 01:00:00 9.7 7 Sudoeste 35 Sudoeste 1 -- -- 97
2019-11-23 00:00:00 10.9 8 Sur 16 Sur 0 -- -- 96
2019-11-22 23:00:00 10.7 8 Sudeste 20 Este 0.4 -- -- 99
2019-11-22 22:00:00 10.1 9 Nordeste 17 Nordeste 3.4 -- -- 98
2019-11-22 21:00:00 10 8 Este 26 Nordeste 0.8 -- -- 98
2019-11-22 20:00:00 9.5 14 Nordeste 29 Nordeste 2.8 -- -- 98
2019-11-22 19:00:00 9 8 Nordeste 26 Nordeste 3.2 -- -- 97
2019-11-22 18:00:00 8.9 17 Nordeste 28 Nordeste 1.4 -- -- 95
2019-11-22 17:00:00 9.2 14 Nordeste 24 Nordeste 0.8 -- -- 94
2019-11-22 16:00:00 10.1 4 Este 19 Nordeste 0.6 -- -- 89
2019-11-22 15:00:00 11.4 7 Nordeste 28 Este 0 -- -- 80
2019-11-22 14:00:00 11.4 19 Este 31 Este 0 -- -- 77
2019-11-22 13:00:00 11.3 15 Este 26 Este 0 -- -- 78
2019-11-22 12:00:00 11 15 Este 25 Nordeste 0 -- -- 75
2019-11-22 11:00:00 9.2 8 Nordeste 19 Este 0 -- -- 74
2019-11-22 10:00:00 7.1 10 Nordeste 19 Nordeste 0 -- -- 80
2019-11-22 09:00:00 5.7 12 Nordeste 17 Nordeste 0 -- -- 84
2019-11-22 08:00:00 5.6 13 Nordeste 17 Nordeste 0 -- -- 83
2019-11-22 07:00:00 5.7 13 Nordeste 17 Nordeste 0 -- -- 82
2019-11-22 06:00:00 5.9 11 Nordeste 17 Nordeste 0 -- -- 83
2019-11-22 05:00:00 5.4 12 Nordeste 17 Norte 0 -- -- 85
2019-11-22 04:00:00 5.1 12 Nordeste 20 Nordeste 0 -- -- 86
2019-11-22 03:00:00 5 16 Nordeste 20 Nordeste 0 -- -- 86
2019-11-22 02:00:00 4.9 10 Nordeste 20 Nordeste 0 -- -- 87
2019-11-22 01:00:00 5.2 10 Nordeste 16 Nordeste 0 -- -- 87
2019-11-22 00:00:00 4.3 8 Nordeste 13 Nordeste 0 -- -- 91
2019-11-21 23:00:00 3.2 7 Nordeste 12 Norte 0 -- -- 91
2019-11-21 22:00:00 3 5 Nordeste 8 Nordeste 0 -- -- 92
2019-11-21 21:00:00 4 4 Nordeste 9 Este 0 -- -- 90
2019-11-21 20:00:00 5.6 5 Nordeste 9 Nordeste 0 -- -- 84
2019-11-21 19:00:00 6.9 8 Sudoeste 12 Sudoeste 0 -- -- 82
2019-11-21 18:00:00 6 4 Norte 6 Norte 0 -- -- 84
2019-11-21 17:00:00 8.9 0 Calma 18 Sudoeste 0 -- -- 72
2019-11-21 16:00:00 11.7 13 Sudoeste 20 Sudoeste 0 -- -- 62
2019-11-21 15:00:00 11.5 14 Sudoeste 28 Sudoeste 0 -- -- 63
2019-11-21 14:00:00 10.2 18 Sudoeste 28 Sudoeste 0 -- -- 71
2019-11-21 13:00:00 10.2 13 Sudoeste 18 Sur 0 -- -- 72
2019-11-21 12:00:00 8.4 6 Sur 17 Sudoeste 0 -- -- 77
2019-11-21 11:00:00 8.1 4 Sudoeste 10 Sur 0 -- -- 75
2019-11-21 10:00:00 6.1 0 Calma 9 Este 0 -- -- 77
2019-11-21 09:00:00 2.5 7 Este 14 Nordeste 0 -- -- 85
2019-11-21 08:00:00 1.4 9 Este 13 Norte 0 -- -- 87
2019-11-21 07:00:00 3.5 9 Nordeste 14 Nordeste 0 -- -- 80
2019-11-21 06:00:00 3.4 11 Nordeste 15 Norte 0 -- -- 81
2019-11-21 05:00:00 3.9 9 Nordeste 15 Nordeste 0 -- -- 80
2019-11-21 04:00:00 3.7 10 Nordeste 15 Norte 0 -- -- 81
2019-11-21 03:00:00 3.5 9 Nordeste 18 Nordeste 0 -- -- 82
2019-11-21 02:00:00 3.8 11 Nordeste 18 Nordeste 0 -- -- 80
2019-11-21 01:00:00 3.8 12 Nordeste 15 Nordeste 0 -- -- 81
2019-11-21 00:00:00 3.3 12 Nordeste 19 Nordeste 0 -- -- 85
2019-11-20 23:00:00 3.5 15 Nordeste 19 Nordeste 0 -- -- 85
2019-11-20 22:00:00 3.4 9 Nordeste 15 Nordeste 0 -- -- 86
2019-11-20 21:00:00 4.6 11 Nordeste 14 Nordeste 0 -- -- 85
2019-11-20 20:00:00 5.8 9 Nordeste 13 Norte 0 -- -- 82
2019-11-20 19:00:00 4.7 6 Nordeste 10 Nordeste 0 -- -- 86
2019-11-20 18:00:00 5.1 6 Nordeste 8 Nordeste 0 -- -- 85
2019-11-20 17:00:00 8.9 2 Norte 5 Sudoeste 0 -- -- 70
2019-11-20 16:00:00 9.6 5 Sudoeste 13 Sudoeste 0 -- -- 60
2019-11-20 15:00:00 11.8 9 Sudoeste 16 Sudoeste 0 -- -- 51
2019-11-20 14:00:00 11.8 5 Sudoeste 12 Sur 0 -- -- 57
2019-11-20 13:00:00 9 4 Nordeste 10 Este 0 -- -- 62
2019-11-20 12:00:00 7.8 8 Este 16 Este 0 -- -- 66
2019-11-20 11:00:00 4.8 12 Nordeste 19 Este 0 -- -- 77
2019-11-20 10:00:00 2.5 11 Nordeste 15 Nordeste 0 -- -- 82
2019-11-20 09:00:00 0.6 11 Nordeste 16 Nordeste 0 -- -- 87
2019-11-20 08:00:00 -0.3 12 Nordeste 18 Nordeste 0 -- -- 88
2019-11-20 07:00:00 0 13 Nordeste 20 Nordeste 0 -- -- 88
2019-11-20 06:00:00 -0.6 11 Nordeste 19 Nordeste 0 -- -- 92
2019-11-20 05:00:00 -0.5 13 Nordeste 20 Este 0 -- -- 93
2019-11-20 04:00:00 0 13 Nordeste 17 Nordeste 0 -- -- 92
2019-11-20 03:00:00 0.3 13 Nordeste 17 Nordeste 0 -- -- 92
2019-11-20 02:00:00 -0.6 14 Nordeste 18 Nordeste 0 -- -- 95
2019-11-20 01:00:00 0.4 12 Nordeste 21 Nordeste 0 -- -- 92
2019-11-20 00:00:00 0 12 Nordeste 19 Nordeste 0 -- -- 92
2019-11-19 23:00:00 0.1 9 Nordeste 19 Nordeste 0 -- -- 93
2019-11-19 22:00:00 0.3 11 Nordeste 14 Nordeste 0 -- -- 93
2019-11-19 21:00:00 0 10 Nordeste 14 Nordeste 0 -- -- 92
2019-11-19 20:00:00 1 8 Nordeste 12 Norte 0 -- -- 89
2019-11-19 19:00:00 0.9 6 Nordeste 13 Este 0 -- -- 86
2019-11-19 18:00:00 2.6 6 Nordeste 11 Sudoeste 0 -- -- 79
2019-11-19 17:00:00 7.3 7 Sudoeste 21 Sur 0 -- -- 59
2019-11-19 16:00:00 8.6 13 Sudoeste 23 Sur 0 -- -- 59
2019-11-19 15:00:00 8.8 10 Sur 16 Sudoeste 0 -- -- 64
2019-11-19 14:00:00 7.9 8 Sudoeste 16 Sudoeste 0 -- -- 70
2019-11-19 13:00:00 7 8 Sudoeste 18 Sur 0 -- -- 76
2019-11-19 12:00:00 6.1 12 Sudoeste 18 Sudoeste 0 -- -- 79
2019-11-19 11:00:00 4.2 7 Sudoeste 11 Nordeste 0 -- -- 100
2019-11-19 10:00:00 0.7 6 Este 15 Nordeste 0 -- -- 100
2019-11-19 09:00:00 -1.3 9 Nordeste 17 Norte 0 -- -- 100
2019-11-19 08:00:00 -1.1 8 Nordeste 12 Nordeste 0 -- -- 99
2019-11-19 07:00:00 -1.2 8 Nordeste 13 Nordeste 0 -- -- 99
2019-11-19 06:00:00 -1 10 Nordeste 14 Norte 0 -- -- 99
2019-11-19 05:00:00 -1.1 9 Nordeste 19 Nordeste 0 -- -- 99
2019-11-19 04:00:00 -1.2 14 Nordeste 18 Nordeste 0 -- -- 99
2019-11-19 03:00:00 -1 12 Nordeste 15 Nordeste 0 -- -- 99
2019-11-19 02:00:00 -0.1 6 Nordeste 15 Nordeste 0 -- -- 97
2019-11-19 01:00:00 0.1 6 Nordeste 12 Nordeste 0 -- -- 97
2019-11-19 00:00:00 0.4 6 Nordeste 11 Este 0 -- -- 96
2019-11-18 23:00:00 1.7 7 Este 17 Este 0 -- -- 94
2019-11-18 22:00:00 2 4 Nordeste 11 Este 0 -- -- 96
2019-11-18 21:00:00 2.4 6 Nordeste 13 Nordeste 0 -- -- 96
2019-11-18 20:00:00 3.3 8 Norte 12 Norte 0 -- -- 94
2019-11-18 19:00:00 4.5 2 Sudeste 8 Noroeste 0 -- -- 90
2019-11-18 18:00:00 5.5 2 Norte 15 Sudoeste 0 -- -- 85
2019-11-18 17:00:00 8.4 12 Sudoeste 19 Sudoeste 0 -- -- 77
2019-11-18 16:00:00 9.3 11 Sudoeste 19 Sudoeste 0 -- -- 74
2019-11-18 15:00:00 8.8 9 Sudoeste 14 Sudoeste 0 -- -- 77
2019-11-18 14:00:00 6.9 8 Sudoeste 18 Sudoeste 0 -- -- 83
2019-11-18 13:00:00 7.1 11 Sudoeste 18 Sudoeste 0 -- -- 83
2019-11-18 12:00:00 6.2 9 Sudoeste 15 Sur 0 -- -- 90
2019-11-18 11:00:00 5.2 3 Sudeste 14 Nordeste 0 -- -- 100
2019-11-18 10:00:00 2.9 10 Norte 15 Norte 0 -- -- 99
2019-11-18 09:00:00 2.1 5 Norte 12 Norte 0 -- -- 99
2019-11-18 08:00:00 1.2 12 Nordeste 19 Este 0 -- -- 98
2019-11-18 07:00:00 1.2 6 Nordeste 13 Este 0 -- -- 98
2019-11-18 06:00:00 1.3 6 Nordeste 10 Nordeste 0 -- -- 98
2019-11-18 05:00:00 1.1 4 Nordeste 12 Este 0 -- -- 97
2019-11-18 04:00:00 1.9 6 Nordeste 14 Este 0 -- -- 97
2019-11-18 03:00:00 1.6 9 Nordeste 13 Este 0 -- -- 97
2019-11-18 02:00:00 2.2 8 Nordeste 12 Nordeste 0 -- -- 96
2019-11-18 01:00:00 2.6 4 Nordeste 10 Norte 0 -- -- 96
2019-11-18 00:00:00 3.2 5 Norte 16 Este 0 -- -- 92
2019-11-17 23:00:00 4.7 9 Nordeste 15 Nordeste 0 -- -- 93
2019-11-17 22:00:00 5.6 5 Sudoeste 9 Sudoeste 0 -- -- 88
2019-11-17 21:00:00 6.8 3 Este 14 Norte 0 -- -- 83
2019-11-17 20:00:00 7.4 6 Oeste 17 Oeste 0 -- -- 80
2019-11-17 19:00:00 7.5 5 Nordeste 10 Norte 0 -- -- 79
2019-11-17 18:00:00 7.8 5 Noroeste 18 Sur 0 -- -- 76
2019-11-17 17:00:00 8 12 Sudoeste 26 Sudoeste 0 -- -- 75
2019-11-17 16:00:00 8.8 8 Oeste 24 Sudoeste 0 -- -- 75
2019-11-17 15:00:00 9.1 10 Oeste 28 Oeste 0 -- -- 74
2019-11-17 14:00:00 8.4 13 Oeste 26 Oeste 0 -- -- 76
2019-11-17 13:00:00 7.2 14 Oeste 30 Sudoeste 0 -- -- 78
2019-11-17 12:00:00 6.1 15 Oeste 30 Oeste 0 -- -- 80
2019-11-17 11:00:00 4.7 7 Sudoeste 10 Sudoeste 0 -- -- 87
2019-11-17 10:00:00 3.3 4 Sur 12 Nordeste 0 -- -- 95
2019-11-17 09:00:00 0.3 11 Nordeste 14 Este 0 -- -- 98
2019-11-17 08:00:00 -1.2 5 Este 12 Este 0 -- -- 97
2019-11-17 07:00:00 -1.3 3 Nordeste 8 Nordeste 0 -- -- 96
2019-11-17 06:00:00 -1.2 5 Nordeste 10 Este 0 -- -- 96
2019-11-17 05:00:00 -0.4 4 Nordeste 8 Norte 0 -- -- 95
2019-11-17 04:00:00 0.1 2 Norte 12 Nordeste 0 -- -- 94
2019-11-17 03:00:00 -0.5 5 Nordeste 12 Este 0 -- -- 95
2019-11-17 02:00:00 -0.3 5 Nordeste 10 Norte 0 -- -- 94
2019-11-17 01:00:00 0.8 4 Noroeste 13 Nordeste 0 -- -- 93
2019-11-17 00:00:00 0.6 4 Norte 10 Este 0 -- -- 92
2019-11-16 23:00:00 2.8 2 Nordeste 17 Noroeste 0 -- -- 83
2019-11-16 22:00:00 3.7 6 Oeste 15 Norte 0 -- -- 81
2019-11-16 21:00:00 3.6 8 Norte 14 Norte 0 -- -- 83
2019-11-16 20:00:00 3 4 Oeste 13 Oeste 0 -- -- 87
2019-11-16 19:00:00 3.3 0 Calma 13 Oeste 0 -- -- 87
2019-11-16 18:00:00 4.4 8 Oeste 23 Noroeste 0 -- -- 84
2019-11-16 17:00:00 5.1 15 Noroeste 36 Noroeste 0 -- -- 79
2019-11-16 16:00:00 6.2 13 Oeste 26 Oeste 0 -- -- 71
2019-11-16 15:00:00 6.2 12 Sudoeste 20 Sur 0 -- -- 80
2019-11-16 14:00:00 4.1 12 Sudoeste 21 Sudoeste 0 -- -- 91
2019-11-16 13:00:00 3.5 9 Oeste 17 Sudoeste 0 -- -- 91
2019-11-16 12:00:00 2.2 5 Noroeste 10 Noroeste 0 -- -- 98
2019-11-16 11:00:00 1.3 5 Este 12 Nordeste 0 -- -- 100
2019-11-16 10:00:00 0.5 4 Sudeste 12 Norte 0 -- -- 100
2019-11-16 09:00:00 0.6 7 Norte 12 Norte 0 -- -- 100
2019-11-16 08:00:00 0.4 4 Este 15 Nordeste 0 -- -- 100
2019-11-16 07:00:00 0.6 8 Nordeste 13 Nordeste 0 -- -- 99
2019-11-16 06:00:00 0.5 6 Norte 13 Este 0 -- -- 99
2019-11-16 05:00:00 0.4 9 Nordeste 17 Nordeste 0 -- -- 99
2019-11-16 04:00:00 -0.1 7 Nordeste 11 Norte 0 -- -- 99
2019-11-16 03:00:00 -0.5 6 Nordeste 9 Nordeste 0 -- -- 98
2019-11-16 02:00:00 0.5 4 Norte 13 Nordeste 0 -- -- 99
2019-11-16 01:00:00 -0.2 10 Nordeste 19 Nordeste 0 -- -- 98
2019-11-16 00:00:00 0.3 5 Nordeste 13 Norte 0 -- -- 96